Time;durP1;ratioP1;P1;durP2;ratioP2;P2;SDS_P1;SDS_P2;PMS_P1;PMS_P2;Temp;Humidity;BMP_temperature;BMP_pressure;BME280_temperature;BME280_humidity;BME280_pressure;Samples;Min_cycle;Max_cycle;Signal;HPM_P1;HPM_P2
2022/10/28 00:00:19;;;;;;;7.55;2.22;;;;;;;16.44;61.61;96326.25;4838875;29;20212;-84
2022/10/28 00:02:46;;;;;;;9.93;3.40;;;;;;;16.40;61.95;96323.13;4844006;29;20197;-82
2022/10/28 00:05:12;;;;;;;10.55;3.20;;;;;;;16.36;62.56;96327.06;4842107;29;20285;-84
2022/10/28 00:07:54;;;;;;;8.02;2.92;;;;;;;16.37;62.67;96325.25;4842466;29;20197;-85
2022/10/28 00:10:37;;;;;;;6.70;2.42;;;;;;;16.32;62.73;96317.06;4827373;29;20311;-84
2022/10/28 00:13:03;;;;;;;8.00;2.55;;;;;;;16.25;62.99;96316.06;4819425;29;20712;-83
2022/10/28 00:15:38;;;;;;;4.90;2.72;;;;;;;16.29;62.93;96320.03;4840120;29;20221;-83
2022/10/28 00:18:03;;;;;;;13.18;3.13;;;;;;;16.19;63.45;96322.00;4842604;29;20201;-84
2022/10/28 00:20:30;;;;;;;5.05;2.75;;;;;;;16.21;62.60;96317.41;4843886;29;20213;-83
2022/10/28 00:22:55;;;;;;;8.32;2.45;;;;;;;16.23;61.98;96324.09;4843843;29;20554;-84
2022/10/28 00:25:23;;;;;;;10.30;2.80;;;;;;;16.23;61.46;96321.47;4838813;29;20204;-81
2022/10/28 00:27:49;;;;;;;7.93;2.40;;;;;;;16.22;61.27;96319.03;4841641;29;20345;-82
2022/10/28 00:30:14;;;;;;;12.95;3.20;;;;;;;16.18;61.88;96322.97;4839339;29;20288;-84
2022/10/28 00:32:42;;;;;;;8.93;3.35;;;;;;;16.20;61.68;96321.00;4841536;29;20221;-84
2022/10/28 00:35:07;;;;;;;10.38;2.13;;;;;;;16.14;62.22;96319.84;4824060;29;20189;-84
2022/10/28 00:37:33;;;;;;;10.18;2.70;;;;;;;16.13;62.78;96321.66;4848524;29;20189;-82
2022/10/28 00:39:58;;;;;;;6.25;2.65;;;;;;;16.14;62.62;96323.28;4840645;29;20248;-82
2022/10/28 00:42:23;;;;;;;8.77;2.22;;;;;;;16.11;62.38;96325.41;4865023;29;20230;-81
2022/10/28 00:45:00;;;;;;;7.38;3.08;;;;;;;16.08;62.77;96320.50;4864698;29;20209;-81
2022/10/28 00:47:28;;;;;;;10.27;2.72;;;;;;;16.06;62.79;96325.91;4866562;29;20185;-82
2022/10/28 00:50:11;;;;;;;7.25;2.60;;;;;;;16.05;62.70;96329.50;4858502;29;20217;-83
2022/10/28 00:52:37;;;;;;;9.85;2.92;;;;;;;16.01;62.90;96322.97;4842992;29;20194;-84
2022/10/28 00:55:03;;;;;;;10.98;2.72;;;;;;;16.04;62.69;96327.03;4843406;29;20264;-84
2022/10/28 00:57:32;;;;;;;10.15;2.60;;;;;;;16.07;62.95;96321.47;4842580;29;20280;-83
2022/10/28 00:59:58;;;;;;;9.25;2.92;;;;;;;16.09;62.96;96316.91;4830670;29;20222;-82
2022/10/28 01:02:23;;;;;;;12.02;2.80;;;;;;;16.15;62.48;96318.84;4842205;29;20189;-82
2022/10/28 01:04:48;;;;;;;9.75;3.47;;;;;;;16.23;61.52;96320.66;4841424;29;20213;-82
2022/10/28 01:07:14;;;;;;;7.70;2.20;;;;;;;16.24;62.28;96317.06;4842037;29;20214;-84
2022/10/28 01:09:40;;;;;;;7.97;2.97;;;;;;;16.22;62.30;96321.66;4838205;29;20217;-82
2022/10/28 01:12:08;;;;;;;8.63;2.35;;;;;;;16.24;62.50;96317.06;4842390;29;20204;-82
2022/10/28 01:15:05;;;;;;;9.13;3.15;;;;;;;16.27;62.27;96311.50;4843833;29;20250;-83
2022/10/28 01:18:19;;;;;;;8.77;2.40;;;;;;;16.23;62.04;96312.81;4843270;29;20581;-83
2022/10/28 01:21:10;;;;;;;6.03;2.40;;;;;;;16.23;61.94;96315.44;4840120;29;20225;-83
2022/10/28 01:23:55;;;;;;;6.78;2.55;;;;;;;16.18;62.13;96309.88;4841057;29;20674;-82
2022/10/28 01:26:48;;;;;;;9.57;3.10;;;;;;;16.10;62.32;96311.50;4838702;29;20201;-82
2022/10/28 01:29:38;;;;;;;9.55;2.40;;;;;;;16.10;62.64;96308.88;4850346;29;20197;-85
2022/10/28 01:32:17;;;;;;;8.48;2.47;;;;;;;16.06;62.62;96310.19;4848672;29;20234;-83
2022/10/28 01:35:03;;;;;;;7.15;2.33;;;;;;;16.06;62.37;96309.34;4840610;29;20192;-82
2022/10/28 01:37:52;;;;;;;11.80;2.53;;;;;;;16.05;62.26;96305.09;4841867;29;20680;-82
2022/10/28 01:40:33;;;;;;;8.13;2.47;;;;;;;16.04;62.54;96300.84;4838870;29;20593;-83
2022/10/28 01:43:22;;;;;;;8.85;2.30;;;;;;;16.07;62.34;96305.75;4823009;29;20194;-84
2022/10/28 01:45:59;;;;;;;7.80;2.72;;;;;;;16.05;62.54;96303.31;4817971;29;20227;-84
2022/10/28 01:48:35;;;;;;;10.93;2.80;;;;;;;16.09;62.17;96295.94;4836828;29;20283;-84
2022/10/28 01:51:08;;;;;;;7.03;2.78;;;;;;;16.18;61.23;96302.00;4855381;29;20719;-84
2022/10/28 01:53:37;;;;;;;8.82;2.10;;;;;;;16.23;61.03;96299.69;4841630;29;20198;-84
2022/10/28 01:56:06;;;;;;;8.52;2.20;;;;;;;16.23;60.38;96295.28;4839262;29;20221;-83
2022/10/28 01:58:32;;;;;;;9.60;3.03;;;;;;;16.28;60.15;96294.81;4826081;29;20216;-83
2022/10/28 02:00:59;;;;;;;15.23;2.83;;;;;;;16.31;59.97;96292.66;4836817;29;20283;-81
2022/10/28 02:03:26;;;;;;;10.40;3.15;;;;;;;16.32;59.99;96294.28;4821722;29;20220;-82
2022/10/28 02:05:54;;;;;;;8.60;2.75;;;;;;;16.30;60.18;96293.63;4824326;29;20204;-82
2022/10/28 02:08:44;;;;;;;8.02;2.30;;;;;;;16.31;60.00;96294.47;4838052;29;20295;-81
2022/10/28 02:11:28;;;;;;;7.60;2.42;;;;;;;16.28;60.40;96290.38;4824958;29;20591;-81
2022/10/28 02:13:53;;;;;;;8.23;3.00;;;;;;;16.29;60.13;96286.78;4840364;29;20237;-82
2022/10/28 02:16:43;;;;;;;8.98;2.50;;;;;;;16.36;59.86;96284.31;4841278;29;20227;-83
2022/10/28 02:19:32;;;;;;;9.05;2.20;;;;;;;16.40;59.58;96280.38;4839853;29;20207;-82
2022/10/28 02:22:07;;;;;;;6.88;2.15;;;;;;;16.48;59.28;96287.41;4840166;29;20269;-84
2022/10/28 02:24:54;;;;;;;8.38;2.28;;;;;;;16.51;59.20;96293.13;4837903;29;20216;-81
2022/10/28 02:27:34;;;;;;;7.93;2.72;;;;;;;16.61;58.88;96282.47;4854853;29;20242;-82
2022/10/28 02:30:04;;;;;;;10.05;2.80;;;;;;;16.63;59.09;96285.75;4861894;29;20224;-83
2022/10/28 02:32:33;;;;;;;8.20;2.60;;;;;;;16.71;59.14;96283.16;4841592;29;20197;-84
2022/10/28 02:35:00;;;;;;;9.57;2.63;;;;;;;16.73;58.84;96275.09;4821046;29;20186;-84
2022/10/28 02:37:28;;;;;;;10.80;2.90;;;;;;;16.73;58.93;96280.34;4826117;29;20200;-84
2022/10/28 02:39:56;;;;;;;12.75;2.80;;;;;;;16.73;58.92;96280.34;4834766;29;20202;-83
2022/10/28 02:42:26;;;;;;;9.35;3.35;;;;;;;16.74;58.65;96271.50;4824009;29;20280;-83
2022/10/28 02:45:06;;;;;;;7.65;2.67;;;;;;;16.78;59.02;96278.03;4839453;29;20206;-84
2022/10/28 02:47:33;;;;;;;10.77;2.78;;;;;;;16.73;59.04;96275.91;4823336;29;20291;-84
2022/10/28 02:50:02;;;;;;;10.50;3.42;;;;;;;16.73;58.88;96277.72;4840376;29;20228;-84
2022/10/28 02:52:29;;;;;;;6.82;2.80;;;;;;;16.72;59.07;96278.72;4837156;29;20188;-83
2022/10/28 02:54:56;;;;;;;8.80;2.50;;;;;;;16.73;58.97;96277.72;4836665;29;20185;-83
2022/10/28 02:57:27;;;;;;;9.32;3.45;;;;;;;16.72;58.78;96276.09;4825076;29;20189;-83
2022/10/28 02:59:53;;;;;;;9.63;2.72;;;;;;;16.71;59.00;96275.28;4834640;29;20205;-82
2022/10/28 03:02:19;;;;;;;10.30;3.50;;;;;;;16.67;59.47;96269.50;4821967;29;20201;-84
2022/10/28 03:04:44;;;;;;;7.07;2.42;;;;;;;16.66;59.50;96273.09;4840802;29;20233;-82
2022/10/28 03:07:09;;;;;;;6.38;2.60;;;;;;;16.65;59.44;96276.72;4838016;29;20261;-82
2022/10/28 03:09:35;;;;;;;8.13;2.33;;;;;;;16.67;59.38;96284.41;4841148;29;20205;-83
2022/10/28 03:12:00;;;;;;;9.82;2.30;;;;;;;16.67;59.33;96279.16;4839940;29;20193;-83
2022/10/28 03:14:25;;;;;;;11.70;3.28;;;;;;;16.68;58.97;96283.44;4839911;29;20678;-82
2022/10/28 03:16:50;;;;;;;11.48;2.40;;;;;;;16.71;59.75;96283.16;4839375;29;20199;-82
2022/10/28 03:19:16;;;;;;;9.27;2.83;;;;;;;16.66;61.29;96280.16;4824098;29;20229;-82
2022/10/28 03:21:41;;;;;;;11.48;2.70;;;;;;;16.53;63.29;96280.69;4839987;29;20638;-83
2022/10/28 03:24:06;;;;;;;10.02;2.60;;;;;;;16.57;63.02;96268.88;4840201;29;20206;-84
2022/10/28 03:26:32;;;;;;;10.95;3.20;;;;;;;16.53;62.03;96264.13;4839522;29;20232;-84
2022/10/28 03:28:57;;;;;;;8.68;2.35;;;;;;;16.57;61.52;96255.75;4839502;29;20197;-83
2022/10/28 03:31:22;;;;;;;9.52;2.70;;;;;;;16.57;61.07;96249.69;4839627;29;20681;-82
2022/10/28 03:33:47;;;;;;;7.65;3.25;;;;;;;16.54;60.82;96250.84;4839751;29;20185;-83
2022/10/28 03:36:13;;;;;;;10.57;2.97;;;;;;;16.54;60.84;96250.84;4843651;29;20189;-81
2022/10/28 03:38:38;;;;;;;7.68;2.28;;;;;;;16.55;60.81;96249.06;4843604;29;20189;-83
2022/10/28 03:41:03;;;;;;;9.68;2.55;;;;;;;16.56;60.14;96251.50;4843104;29;20216;-81
2022/10/28 03:43:29;;;;;;;8.23;2.20;;;;;;;16.65;59.96;96254.94;4844712;29;20221;-82
2022/10/28 03:45:54;;;;;;;10.52;3.00;;;;;;;16.71;59.99;96246.44;4844002;29;20742;-82
2022/10/28 03:48:19;;;;;;;8.45;2.88;;;;;;;16.67;59.10;96245.91;4843176;29;20203;-82
2022/10/28 03:50:45;;;;;;;9.27;2.83;;;;;;;16.77;59.51;96245.72;4843227;29;20216;-81
2022/10/28 03:53:10;;;;;;;6.18;2.72;;;;;;;16.80;58.74;96241.97;4843039;29;20197;-80
2022/10/28 03:55:35;;;;;;;9.77;3.28;;;;;;;16.87;58.85;96240.28;4841473;29;20200;-81
2022/10/28 03:58:00;;;;;;;6.88;2.35;;;;;;;16.91;58.97;96244.22;4842691;29;20727;-83
2022/10/28 04:00:26;;;;;;;7.63;2.90;;;;;;;16.89;58.98;96243.59;4844492;29;20216;-84
2022/10/28 04:02:52;;;;;;;9.75;3.03;;;;;;;16.85;59.41;96242.25;4844785;29;20268;-84
2022/10/28 04:05:18;;;;;;;13.30;2.70;;;;;;;16.90;59.16;96245.22;4826031;29;20208;-86
2022/10/28 04:07:43;;;;;;;11.32;3.00;;;;;;;16.84;59.61;96244.06;4837285;29;20276;-81
2022/10/28 04:10:12;;;;;;;11.73;2.80;;;;;;;16.86;59.42;96243.91;4842820;29;20209;-85
2022/10/28 04:12:37;;;;;;;7.00;2.78;;;;;;;16.81;59.54;96246.22;4830309;29;20550;-84
2022/10/28 04:15:03;;;;;;;7.22;2.58;;;;;;;16.82;59.48;96250.47;4844578;29;20185;-84
2022/10/28 04:17:28;;;;;;;10.38;2.90;;;;;;;16.83;59.11;96252.13;4845484;29;20235;-83
2022/10/28 04:19:54;;;;;;;7.25;2.55;;;;;;;16.82;59.49;96256.53;4845560;29;20265;-84
2022/10/28 04:22:19;;;;;;;6.97;3.13;;;;;;;16.81;58.85;96256.72;4846001;29;20560;-84
2022/10/28 04:24:44;;;;;;;9.95;2.70;;;;;;;16.86;59.40;96247.34;4838384;29;20210;-84
2022/10/28 04:27:10;;;;;;;10.93;2.92;;;;;;;16.88;59.63;96252.44;4843847;29;20257;-84
2022/10/28 04:29:35;;;;;;;11.45;2.90;;;;;;;16.84;59.89;96245.88;4845106;29;20300;-84
2022/10/28 04:32:00;;;;;;;13.23;3.33;;;;;;;16.79;60.11;96237.72;4842382;29;20292;-83
2022/10/28 04:34:26;;;;;;;11.45;2.85;;;;;;;16.75;60.11;96237.22;4845366;29;20214;-84
2022/10/28 04:36:51;;;;;;;5.38;2.47;;;;;;;16.80;59.68;96227.06;4844399;29;20189;-83
2022/10/28 04:39:16;;;;;;;8.68;2.13;;;;;;;16.79;59.95;96228.03;4845147;29;20217;-83
2022/10/28 04:41:42;;;;;;;8.70;2.55;;;;;;;16.78;60.69;96223.75;4843050;29;20278;-83
2022/10/28 04:44:07;;;;;;;8.35;3.22;;;;;;;16.75;60.05;96221.47;4844946;29;20257;-83
2022/10/28 04:46:32;;;;;;;7.40;2.35;;;;;;;16.76;59.35;96215.25;4844151;29;20249;-83
2022/10/28 04:48:58;;;;;;;7.75;3.10;;;;;;;16.79;59.58;96217.56;4845171;29;20542;-84
2022/10/28 04:51:23;;;;;;;8.20;2.72;;;;;;;16.76;59.98;96217.06;4844985;29;20203;-84
2022/10/28 04:53:48;;;;;;;11.68;3.17;;;;;;;16.66;59.71;96222.47;4829067;29;20189;-82
2022/10/28 04:56:13;;;;;;;7.45;2.30;;;;;;;16.72;58.75;96213.97;4844286;29;20269;-83
2022/10/28 04:58:39;;;;;;;9.35;2.80;;;;;;;16.68;58.27;96225.72;4845095;29;20197;-83
2022/10/28 05:01:06;;;;;;;12.98;3.15;;;;;;;16.70;58.25;96226.44;4846518;29;20209;-84
2022/10/28 05:03:31;;;;;;;6.70;2.55;;;;;;;16.75;57.79;96221.47;4838860;29;20713;-83
2022/10/28 05:05:56;;;;;;;8.93;2.75;;;;;;;16.73;58.27;96222.66;4829076;29;20197;-84
2022/10/28 05:08:22;;;;;;;7.50;2.55;;;;;;;16.77;57.97;96223.94;4847078;29;20252;-84
2022/10/28 05:10:49;;;;;;;13.90;3.10;;;;;;;16.66;58.88;96225.91;4839590;29;20213;-83
2022/10/28 05:13:15;;;;;;;9.75;2.92;;;;;;;16.53;59.73;96217.75;4843399;29;20193;-84
2022/10/28 05:15:40;;;;;;;9.65;3.35;;;;;;;16.41;60.31;96225.16;4842995;29;20197;-85
2022/10/28 05:18:06;;;;;;;8.27;2.72;;;;;;;16.34;61.09;96233.84;4823960;29;20268;-83
2022/10/28 05:20:31;;;;;;;14.13;2.95;;;;;;;16.38;61.17;96222.06;4843888;29;20245;-83
2022/10/28 05:22:56;;;;;;;9.27;3.30;;;;;;;16.38;60.99;96230.72;4828762;29;20193;-84
2022/10/28 05:25:22;;;;;;;8.32;2.70;;;;;;;16.42;61.48;96216.28;4833103;29;20249;-85
2022/10/28 05:27:49;;;;;;;11.82;3.28;;;;;;;16.38;61.21;96227.28;4844072;29;20197;-85
2022/10/28 05:30:14;;;;;;;10.55;2.97;;;;;;;16.41;60.93;96224.31;4838946;29;20202;-85
2022/10/28 05:32:39;;;;;;;9.50;2.42;;;;;;;16.52;60.49;96217.91;4844469;29;20200;-85
2022/10/28 05:35:05;;;;;;;12.43;2.53;;;;;;;16.51;60.39;96211.03;4840292;29;20688;-84
2022/10/28 05:37:30;;;;;;;9.85;2.55;;;;;;;16.49;59.92;96213.81;4842362;29;20208;-85
2022/10/28 05:39:56;;;;;;;11.35;3.20;;;;;;;16.54;59.85;96208.09;4822566;29;20217;-83
2022/10/28 05:42:21;;;;;;;12.38;4.30;;;;;;;16.50;59.54;96215.47;4843821;29;20650;-84
2022/10/28 05:44:46;;;;;;;6.63;2.72;;;;;;;16.63;58.61;96207.91;4844198;29;20616;-84
2022/10/28 05:47:12;;;;;;;6.95;2.33;;;;;;;16.62;59.37;96200.22;4843253;29;20200;-83
2022/10/28 05:49:37;;;;;;;12.02;2.63;;;;;;;16.59;59.82;96206.59;4842050;29;20217;-85
2022/10/28 05:52:02;;;;;;;7.75;2.40;;;;;;;16.56;58.90;96201.69;4842438;29;20193;-83
2022/10/28 05:54:28;;;;;;;9.02;3.08;;;;;;;16.59;59.33;96208.38;4826588;29;20193;-85
2022/10/28 05:56:53;;;;;;;10.93;3.28;;;;;;;16.62;58.84;96206.25;4842082;29;20208;-84
2022/10/28 05:59:18;;;;;;;7.68;2.70;;;;;;;16.64;58.82;96209.53;4838456;29;20221;-83
2022/10/28 06:01:44;;;;;;;5.55;3.13;;;;;;;16.69;58.62;96204.59;4858473;29;20177;-84
2022/10/28 06:04:09;;;;;;;8.50;3.17;;;;;;;16.68;58.21;96200.34;4848311;29;20217;-84
2022/10/28 06:06:34;;;;;;;8.63;2.45;;;;;;;16.76;58.09;96202.13;4842345;29;20197;-86
2022/10/28 06:08:59;;;;;;;10.50;3.20;;;;;;;16.83;57.73;96203.09;4825987;29;20200;-85
2022/10/28 06:11:25;;;;;;;15.38;2.65;;;;;;;16.76;58.18;96203.94;4845722;29;20197;-85
2022/10/28 06:13:50;;;;;;;12.35;3.15;;;;;;;16.75;57.96;96199.69;4843743;29;20177;-86
2022/10/28 06:16:15;;;;;;;8.10;2.33;;;;;;;16.73;58.22;96204.28;4842483;29;20204;-85
2022/10/28 06:18:50;;;;;;;9.50;3.30;;;;;;;16.81;57.38;96199.03;4829819;29;20204;-86
2022/10/28 06:21:15;;;;;;;10.15;2.78;;;;;;;16.76;57.62;96202.13;4832259;29;20242;-86
2022/10/28 06:23:40;;;;;;;9.15;2.80;;;;;;;16.76;57.90;96209.19;4841627;29;20209;-86
2022/10/28 06:26:06;;;;;;;6.55;2.70;;;;;;;16.83;57.87;96207.53;4819180;29;20224;-85
2022/10/28 06:28:31;;;;;;;8.88;2.88;;;;;;;16.75;57.46;96221.47;4844538;29;20260;-85
2022/10/28 06:31:07;;;;;;;11.73;2.63;;;;;;;16.77;57.67;96227.38;4843247;29;20209;-86
2022/10/28 06:33:33;;;;;;;7.80;2.65;;;;;;;16.80;57.84;96236.72;4824754;29;20542;-85
2022/10/28 06:35:59;;;;;;;8.88;2.83;;;;;;;16.65;58.75;96247.06;4830280;29;20189;-86
2022/10/28 06:38:25;;;;;;;10.68;3.25;;;;;;;16.68;58.85;96244.09;4838855;29;20692;-85
2022/10/28 06:40:50;;;;;;;6.80;3.20;;;;;;;16.69;59.12;96243.13;4833337;29;20713;-85
2022/10/28 06:43:15;;;;;;;9.63;4.13;;;;;;;16.74;59.05;96240.84;4824853;29;20574;-81
2022/10/28 06:45:41;;;;;;;7.03;3.13;;;;;;;16.81;58.97;96246.22;4836965;29;20733;-83
2022/10/28 06:48:07;;;;;;;7.90;3.10;;;;;;;16.81;59.05;96240.97;4839947;29;20201;-86
2022/10/28 06:50:34;;;;;;;6.75;2.70;;;;;;;16.86;58.17;96231.59;4840378;29;20209;-86
2022/10/28 06:52:59;;;;;;;8.70;2.42;;;;;;;17.02;57.72;96241.22;4845173;29;20718;-87
2022/10/28 06:55:28;;;;;;;7.13;2.65;;;;;;;16.89;58.13;96243.59;4840556;29;20190;-85
2022/10/28 06:57:57;;;;;;;10.57;2.97;;;;;;;17.07;57.67;96246.78;4843584;29;20271;-84
2022/10/28 07:27:12;;;;;;;;;;;;;;;;;;;;;
2022/10/28 08:00:31;;;;;;;9.15;2.75;;;;;;;17.25;58.22;96284.09;5898706;23;20179;-84
2022/10/28 08:20:42;;;;;;;6.28;2.20;;;;;;;17.35;57.82;96291.75;4821714;29;20595;-86
2022/10/28 08:26:39;;;;;;;8.75;2.47;;;;;;;17.59;56.71;96298.72;4850220;29;20277;-81
2022/10/28 08:29:05;;;;;;;7.60;2.53;;;;;;;17.54;57.43;96295.75;4812686;29;20297;-83
2022/10/28 08:31:32;;;;;;;10.00;2.63;;;;;;;17.58;57.91;96296.22;4825994;29;20190;-81
2022/10/28 08:33:59;;;;;;;10.38;2.72;;;;;;;17.48;57.80;96296.44;4811645;29;20607;-83
2022/10/28 08:36:25;;;;;;;6.80;2.40;;;;;;;17.57;58.01;96300.66;4827799;29;20202;-85
2022/10/28 08:38:51;;;;;;;6.93;2.42;;;;;;;17.62;57.55;96311.47;4827642;29;20198;-85
2022/10/28 09:07:37;;;;;;;8.18;2.50;;;;;;;18.20;57.02;96283.88;4831512;29;20236;-83
2022/10/28 10:32:21;;;;;;;7.18;2.95;;;;;;;20.40;53.53;96323.34;4811513;29;20197;-87
2022/10/28 10:35:27;;;;;;;9.60;3.80;;;;;;;20.56;53.06;96312.56;4808692;29;20202;-86
2022/10/28 10:38:53;;;;;;;9.18;2.38;;;;;;;20.68;53.89;96298.88;4830346;29;20209;-86
2022/10/28 10:45:24;;;;;;;9.75;2.95;;;;;;;20.82;54.85;96290.00;4802507;29;20225;-89
2022/10/28 10:48:08;;;;;;;8.77;2.70;;;;;;;20.93;53.98;96292.91;4810712;29;20206;-87
2022/10/28 10:50:59;;;;;;;10.35;2.80;;;;;;;20.96;53.90;96291.72;4770682;29;21036;-88
2022/10/28 10:53:34;;;;;;;8.40;2.65;;;;;;;21.02;53.94;96298.03;4804044;29;20206;-87
2022/10/28 10:56:51;;;;;;;8.50;2.67;;;;;;;21.21;53.02;96297.38;4791815;29;20198;-90
2022/10/28 10:59:43;;;;;;;9.82;3.40;;;;;;;21.17;53.91;96302.19;4792059;29;20218;-87
2022/10/28 11:05:31;;;;;;;11.48;2.92;;;;;;;21.22;52.13;96288.44;4801464;29;20316;-87
2022/10/28 11:12:01;;;;;;;5.30;2.35;;;;;;;21.31;54.82;96286.47;4801134;29;20297;-87
2022/10/28 11:15:08;;;;;;;8.48;2.58;;;;;;;21.21;55.10;96266.47;4810846;29;20237;-86
2022/10/28 11:33:07;;;;;;;;;;;;;;;;;;;;;
2022/10/28 11:36:05;;;;;;;;;;;;;;;;;;;;;
2022/10/28 11:42:50;;;;;;;6.93;3.08;;;;;;;20.81;55.63;96264.63;4872087;29;20200;-87
2022/10/28 11:45:30;;;;;;;9.23;2.60;;;;;;;21.09;55.57;96273.31;4856298;29;20216;-86
2022/10/28 11:56:36;;;;;;;10.40;2.83;;;;;;;21.77;54.95;96258.34;4568060;23;20624;-83
2022/10/28 12:25:48;;;;;;;11.20;2.95;;;;;;;22.58;53.13;96231.75;1113863;23;20578;-82
2022/10/28 12:32:41;;;;;;;;;;;;;;;;;;;;;
2022/10/28 12:56:27;;;;;;;11.07;2.80;;;;;;;22.81;54.50;96233.97;4781508;30;20320;-83
2022/10/28 15:16:53;;;;;;;10.45;3.65;;;;;;;22.13;56.27;96241.34;4854589;29;20689;-89
2022/10/28 15:32:23;;;;;;;11.13;3.03;;;;;;;21.71;57.59;96238.00;5362489;23;20236;-85
2022/10/28 17:41:02;;;;;;;15.13;7.53;;;;;;;18.06;62.45;96282.81;5689030;23;20244;-81
2022/10/28 17:43:27;;;;;;;16.50;6.93;;;;;;;18.14;62.76;96281.94;4875332;29;20199;-81
2022/10/28 17:46:02;;;;;;;13.45;5.53;;;;;;;18.29;62.77;96285.44;4871688;29;20234;-80
2022/10/28 17:48:28;;;;;;;14.70;5.15;;;;;;;18.35;63.25;96295.22;4866224;29;20187;-87
2022/10/28 17:51:02;;;;;;;12.80;5.18;;;;;;;18.41;63.01;96288.44;4881429;29;20196;-88
2022/10/28 17:53:39;;;;;;;19.42;5.57;;;;;;;18.40;63.28;96303.41;4872002;29;20681;-88
2022/10/28 17:56:19;;;;;;;14.32;4.80;;;;;;;18.44;62.58;96301.22;4862925;29;20196;-88
2022/10/28 17:59:03;;;;;;;;;;;;;;;;;;;;;
2022/10/28 18:01:30;;;;;;;13.48;5.28;;;;;;;18.41;62.20;96301.59;4867342;29;20200;-88
2022/10/28 18:04:21;;;;;;;16.38;7.18;;;;;;;18.38;61.74;96297.50;4859798;29;20636;-89
2022/10/28 18:06:55;;;;;;;15.18;8.23;;;;;;;18.37;61.47;96297.66;4875402;29;20187;-88
2022/10/28 18:09:54;;;;;;;17.63;9.80;;;;;;;18.36;61.00;96294.22;4867691;29;20235;-88
2022/10/28 18:12:28;;;;;;;14.52;10.23;;;;;;;18.34;61.26;96298.84;4844904;29;20200;-89
2022/10/28 18:15:21;;;;;;;13.75;9.13;;;;;;;18.32;60.46;96300.03;4877202;29;20192;-89
2022/10/28 18:18:05;;;;;;;12.40;7.15;;;;;;;18.30;60.67;96297.59;4862146;29;20259;-88
2022/10/28 18:20:33;;;;;;;18.85;10.38;;;;;;;18.32;60.86;96295.59;4876947;29;20262;-88
2022/10/28 18:23:04;;;;;;;15.57;11.57;;;;;;;18.29;61.23;96303.03;4876967;29;20208;-88
2022/10/28 18:25:29;;;;;;;15.50;7.63;;;;;;;18.18;61.91;96298.97;4864780;29;20630;-88
2022/10/28 18:28:06;;;;;;;15.45;5.10;;;;;;;18.20;61.73;96297.00;4876193;29;20200;-88
2022/10/28 18:30:57;;;;;;;9.40;4.20;;;;;;;18.21;60.92;96309.16;4863924;29;20747;-88
2022/10/28 18:33:37;;;;;;;8.68;4.00;;;;;;;18.18;60.36;96308.69;4861675;29;20198;-88
2022/10/28 18:36:09;;;;;;;14.15;3.95;;;;;;;18.16;59.69;96305.41;4876122;29;20295;-89
2022/10/28 18:38:43;;;;;;;12.23;4.00;;;;;;;18.18;58.38;96298.97;4845649;29;20226;-90
2022/10/28 18:41:12;;;;;;;13.15;5.18;;;;;;;18.20;58.15;96304.91;4875868;29;20227;-88
2022/10/28 18:44:13;;;;;;;16.10;5.80;;;;;;;18.25;58.01;96305.16;4859588;29;20207;-88
2022/10/28 18:46:44;;;;;;;14.50;4.15;;;;;;;18.23;57.59;96303.72;4852410;29;20183;-88
2022/10/28 18:49:16;;;;;;;13.38;4.43;;;;;;;18.22;56.78;96305.53;4876617;29;20240;-88
2022/10/28 18:52:20;;;;;;;12.40;3.83;;;;;;;18.20;56.12;96307.53;4865496;29;20192;-89
2022/10/28 18:55:02;;;;;;;;;;;;;;;;;;;;;
